createdAt,value
2017-08-25T03:31:37.832Z,60.70
2017-08-25T03:34:05.493Z,62.30
2017-08-25T03:36:33.165Z,62.30
2017-08-25T03:39:00.784Z,62.20
2017-08-25T03:41:28.455Z,62.00
2017-08-25T03:43:56.116Z,61.60
2017-08-25T03:46:24.495Z,61.50
2017-08-25T03:48:52.162Z,61.50
2017-08-25T03:51:20.185Z,61.50
2017-08-25T03:53:47.815Z,62.20
2017-08-25T03:56:15.469Z,62.90
2017-08-25T03:58:43.130Z,63.10
2017-08-25T04:01:10.796Z,62.40
2017-08-25T04:03:38.478Z,61.80
2017-08-25T04:06:06.133Z,61.50
2017-08-25T04:08:34.216Z,61.70
2017-08-25T04:11:01.850Z,62.00
2017-08-25T04:13:29.498Z,62.20
2017-08-25T04:15:57.255Z,61.80
2017-08-25T04:18:24.903Z,61.10
2017-08-25T04:20:52.594Z,61.10
2017-08-25T04:23:20.238Z,61.30
2017-08-25T04:25:48.315Z,61.60
2017-08-25T04:28:15.957Z,61.80
2017-08-25T04:30:44.146Z,61.70
2017-08-25T04:33:11.776Z,61.80
2017-08-25T04:35:39.404Z,61.90
2017-08-25T04:38:07.057Z,62.00
2017-08-25T04:40:34.684Z,61.70
2017-08-25T04:43:02.341Z,61.30
2017-08-25T04:45:30.007Z,61.40
2017-08-25T04:47:57.669Z,61.60
2017-08-25T04:50:25.396Z,61.80
2017-08-25T04:52:53.053Z,61.90
2017-08-25T04:55:20.796Z,61.70
2017-08-25T04:57:48.467Z,62.20
2017-08-25T05:00:16.118Z,62.70
2017-08-25T05:02:43.974Z,62.70
2017-08-25T05:05:11.708Z,62.80
2017-08-25T05:07:39.345Z,62.50
2017-08-25T05:10:07.466Z,61.20
2017-08-25T05:12:35.095Z,60.80
2017-08-25T05:15:03.646Z,60.60
2017-08-25T05:17:32.042Z,60.40
2017-08-25T05:19:59.849Z,60.40
2017-08-25T05:22:27.465Z,61.10
2017-08-25T05:24:55.665Z,60.90
2017-08-25T05:27:23.299Z,61.40
2017-08-25T05:29:50.962Z,61.50
2017-08-25T05:32:18.607Z,62.20
2017-08-25T05:34:46.373Z,62.10
2017-08-25T05:37:14.505Z,62.00
2017-08-25T05:39:42.171Z,61.80
2017-08-25T05:42:09.954Z,61.60
2017-08-25T05:44:38.167Z,62.10
2017-08-25T05:47:05.999Z,61.60
2017-08-25T05:49:33.646Z,61.70
2017-08-25T05:52:01.766Z,61.90
2017-08-25T05:54:29.597Z,61.50
2017-08-25T05:56:57.243Z,61.30
2017-08-25T05:59:25.405Z,61.50
2017-08-25T06:01:53.057Z,61.70
2017-08-25T06:04:20.717Z,61.50
2017-08-25T06:06:48.834Z,61.20
2017-08-25T06:09:16.460Z,61.20
2017-08-25T06:11:44.103Z,60.70
2017-08-25T06:14:12.167Z,59.80
2017-08-25T06:16:39.833Z,59.90
2017-08-25T06:19:07.973Z,59.90
2017-08-25T06:21:36.068Z,59.30
2017-08-25T06:24:03.706Z,59.00
2017-08-25T06:26:31.352Z,59.00
2017-08-25T06:28:59.456Z,58.80
2017-08-25T06:31:27.158Z,58.50
2017-08-25T06:33:54.786Z,58.60
2017-08-25T06:36:22.849Z,58.30
2017-08-25T06:38:50.475Z,58.20
2017-08-25T06:41:18.129Z,58.30
2017-08-25T06:43:46.152Z,58.20
2017-08-25T06:46:13.813Z,58.00
2017-08-25T06:48:41.466Z,57.50
2017-08-25T06:51:09.552Z,58.10
2017-08-25T06:53:37.215Z,57.50
2017-08-25T06:56:04.884Z,56.20
2017-08-25T06:58:32.890Z,56.70
2017-08-25T07:01:00.551Z,55.50
2017-08-25T07:03:28.190Z,55.10
2017-08-25T07:05:56.338Z,55.80
2017-08-25T07:08:23.976Z,55.80
2017-08-25T07:10:51.628Z,56.40
2017-08-25T07:13:19.630Z,56.60
2017-08-25T07:15:48.849Z,57.60
2017-08-25T07:18:16.485Z,57.40
2017-08-25T07:20:44.564Z,57.50
2017-08-25T07:23:12.488Z,58.90
2017-08-25T07:25:40.137Z,57.60
2017-08-25T07:28:08.169Z,57.70
2017-08-25T07:30:35.827Z,57.50
2017-08-25T07:33:04.272Z,57.30
2017-08-25T07:35:32.381Z,57.50
2017-08-25T07:38:00.097Z,57.10
2017-08-25T07:40:27.766Z,57.00
2017-08-25T07:42:55.843Z,57.10
2017-08-25T07:45:23.633Z,56.70
2017-08-25T07:47:52.043Z,55.50
2017-08-25T07:50:20.069Z,55.40
2017-08-25T07:52:47.874Z,54.80
2017-08-25T07:55:15.891Z,53.20
2017-08-25T08:00:03.843Z,52.60
2017-08-25T08:02:31.965Z,52.60
2017-08-25T08:04:59.612Z,51.90
2017-08-25T08:07:27.687Z,51.40
2017-08-25T08:09:55.333Z,51.30
2017-08-25T08:12:23.938Z,51.10
2017-08-25T08:14:51.935Z,50.40
2017-08-25T08:17:19.584Z,49.70
2017-08-25T08:19:47.241Z,49.20
2017-08-25T08:22:15.274Z,50.30
2017-08-25T08:24:42.903Z,48.80
2017-08-25T08:27:10.554Z,49.10
2017-08-25T08:29:38.653Z,49.10
2017-08-25T08:32:06.284Z,49.40
2017-08-25T08:34:33.910Z,49.30
2017-08-25T08:37:01.893Z,49.00
2017-08-25T08:39:29.534Z,48.80
2017-08-25T08:41:57.172Z,47.80
2017-08-25T08:44:25.269Z,46.80
2017-08-25T08:46:52.909Z,47.10
2017-08-25T08:49:20.598Z,48.40
2017-08-25T08:51:48.665Z,47.60
2017-08-25T08:54:16.296Z,45.80
2017-08-25T08:56:43.946Z,43.40
2017-08-25T08:59:12.041Z,42.40
2017-08-25T09:01:39.677Z,43.60
2017-08-25T09:04:07.314Z,43.20
2017-08-25T09:06:36.248Z,41.20
2017-08-25T09:09:03.879Z,38.80
2017-08-25T09:11:31.484Z,37.60
2017-08-25T09:13:59.536Z,35.70
2017-08-25T09:16:27.150Z,33.70
2017-08-25T09:18:54.766Z,33.00
2017-08-25T09:21:22.815Z,30.70
2017-08-25T09:23:50.409Z,30.30
2017-08-25T09:26:18.003Z,29.40
2017-08-25T09:28:46.004Z,28.20
2017-08-25T09:31:13.619Z,27.40
2017-08-25T09:33:41.218Z,27.60
2017-08-25T09:36:09.199Z,27.50
2017-08-25T09:38:38.022Z,26.20
2017-08-25T09:41:05.635Z,25.20
2017-08-25T09:43:33.726Z,24.90
2017-08-25T09:46:01.352Z,24.50
2017-08-25T09:48:28.982Z,24.90
2017-08-25T09:50:57.033Z,24.70
2017-08-25T09:53:24.643Z,23.60
2017-08-25T09:55:52.222Z,22.40
2017-08-25T09:58:20.231Z,22.70
2017-08-25T10:00:47.827Z,24.00
2017-08-25T10:03:15.442Z,22.40
2017-08-25T10:05:43.516Z,23.90
2017-08-25T10:08:14.024Z,23.60
2017-08-25T10:10:41.627Z,23.00
2017-08-25T10:13:09.669Z,24.70
2017-08-25T10:15:37.418Z,23.80
2017-08-25T10:18:05.070Z,23.00
2017-08-25T10:20:32.714Z,23.50
2017-08-25T10:23:00.322Z,24.50
2017-08-25T10:25:27.935Z,24.10
2017-08-25T10:27:55.551Z,23.50
2017-08-25T10:30:23.167Z,22.80
2017-08-25T10:32:50.833Z,23.00
2017-08-25T10:35:30.913Z,22.50
2017-08-25T10:38:10.275Z,21.20
2017-08-25T10:40:50.104Z,20.60
2017-08-25T10:43:29.387Z,19.50
2017-08-25T10:45:57.017Z,19.30
2017-08-25T10:48:24.631Z,18.30
2017-08-25T10:50:52.329Z,18.10
2017-08-25T10:53:19.942Z,18.10
2017-08-25T10:55:47.559Z,18.00
2017-08-25T10:58:15.217Z,18.00
2017-08-25T11:00:42.819Z,17.60
2017-08-25T11:03:10.798Z,17.20
2017-08-25T11:05:38.582Z,17.40
2017-08-25T11:08:06.198Z,17.50
2017-08-25T11:10:34.143Z,17.40
2017-08-25T11:13:01.976Z,17.20
2017-08-25T11:15:29.573Z,16.70
2017-08-25T11:17:57.972Z,17.10
2017-08-25T11:20:25.591Z,17.00
2017-08-25T11:22:53.230Z,17.10
2017-08-25T11:25:20.839Z,18.00
2017-08-25T11:27:48.813Z,17.50
2017-08-25T11:30:16.420Z,17.40
2017-08-25T11:32:44.058Z,18.30
2017-08-25T11:35:12.074Z,18.50
2017-08-25T11:37:40.160Z,18.00
2017-08-25T11:40:07.893Z,17.80
2017-08-25T11:42:35.874Z,17.10
2017-08-25T11:45:03.495Z,18.40
2017-08-25T11:47:31.394Z,17.90
2017-08-25T11:49:59.478Z,17.20
2017-08-25T11:52:27.079Z,16.50
2017-08-25T11:54:54.691Z,17.40
2017-08-25T11:57:23.024Z,17.30
2017-08-25T11:59:50.638Z,17.10
2017-08-25T12:02:18.246Z,17.30
2017-08-25T12:04:46.527Z,17.00
2017-08-25T12:07:14.241Z,17.00
2017-08-25T12:09:41.926Z,17.70
2017-08-25T12:12:13.613Z,19.20
2017-08-25T12:14:41.213Z,19.50
2017-08-25T12:17:08.833Z,20.40
2017-08-25T12:19:37.059Z,21.60
2017-08-25T12:22:04.668Z,22.00
2017-08-25T12:24:32.261Z,23.10
2017-08-25T12:27:00.298Z,24.30
2017-08-25T12:29:27.964Z,24.90
2017-08-25T12:31:55.892Z,25.30
2017-08-25T12:34:24.610Z,26.40
2017-08-25T12:36:52.218Z,26.30
2017-08-25T12:39:19.814Z,27.00
2017-08-25T12:41:47.787Z,27.30
2017-08-25T12:44:15.384Z,27.60
2017-08-25T12:46:42.982Z,27.50
2017-08-25T12:49:12.027Z,28.10
2017-08-25T12:51:39.697Z,28.10
2017-08-25T12:54:08.806Z,28.40
2017-08-25T12:56:37.648Z,28.40
2017-08-25T12:59:05.403Z,29.30
2017-08-25T13:01:33.026Z,30.20
2017-08-25T13:04:01.093Z,29.60
2017-08-25T13:06:28.698Z,29.90
2017-08-25T13:08:56.954Z,29.70
2017-08-25T13:11:25.012Z,30.00
2017-08-25T13:13:52.666Z,29.90
2017-08-25T13:16:20.494Z,30.30
2017-08-25T13:18:48.449Z,30.60
2017-08-25T13:21:16.062Z,30.70
2017-08-25T13:23:43.681Z,30.00
2017-08-25T13:26:11.317Z,30.00
2017-08-25T13:28:38.927Z,30.00
2017-08-25T13:31:06.934Z,30.50
2017-08-25T13:33:34.544Z,31.00
2017-08-25T13:36:02.161Z,30.80
2017-08-25T13:38:29.791Z,32.30
2017-08-25T13:40:57.398Z,32.50
2017-08-25T13:43:25.779Z,31.80
2017-08-25T13:45:53.386Z,31.80
2017-08-25T13:48:21.020Z,31.50
2017-08-25T13:50:48.623Z,31.30
2017-08-25T13:53:16.230Z,32.00
2017-08-25T13:55:43.863Z,32.50
2017-08-25T13:58:11.462Z,33.00
2017-08-25T14:00:39.087Z,32.50
2017-08-25T14:03:06.703Z,32.90
2017-08-25T14:05:34.327Z,33.30
2017-08-25T14:08:02.064Z,32.40
2017-08-25T14:10:30.187Z,33.00
2017-08-25T14:12:57.845Z,33.10
2017-08-25T14:15:25.960Z,33.20
2017-08-25T14:17:53.583Z,33.10
2017-08-25T14:20:21.190Z,33.30
2017-08-25T14:22:48.818Z,33.40
2017-08-25T14:25:16.504Z,34.40
2017-08-25T14:27:44.232Z,35.90
2017-08-25T14:30:11.853Z,34.70
2017-08-25T14:32:40.275Z,35.20
2017-08-25T14:35:07.907Z,35.10
2017-08-25T14:37:35.817Z,35.50
2017-08-25T14:40:03.454Z,35.00
2017-08-25T14:42:31.059Z,34.70
2017-08-25T14:44:58.757Z,35.60
2017-08-25T14:47:26.349Z,35.20
2017-08-25T14:49:54.355Z,35.10
2017-08-25T14:52:21.961Z,36.20
2017-08-25T14:54:49.586Z,36.80
2017-08-25T14:57:17.646Z,36.00
2017-08-25T14:59:45.290Z,36.00
2017-08-25T15:02:12.926Z,36.80
2017-08-25T15:04:40.947Z,36.70
2017-08-25T15:07:08.689Z,36.50
2017-08-25T15:09:36.884Z,38.00
2017-08-25T15:12:05.698Z,38.70
2017-08-25T15:14:34.829Z,38.00
2017-08-25T15:17:02.500Z,37.20
2017-08-25T15:19:30.583Z,37.50
2017-08-25T15:21:58.205Z,37.80
2017-08-25T15:24:25.861Z,38.00
2017-08-25T15:26:53.920Z,37.90
2017-08-25T15:29:21.544Z,37.60
2017-08-25T15:31:49.190Z,37.40
2017-08-25T15:34:17.307Z,36.70
2017-08-25T15:36:44.932Z,36.80
2017-08-25T15:39:12.538Z,36.70
2017-08-25T15:41:40.617Z,37.50
2017-08-25T15:44:08.252Z,38.20
2017-08-25T15:46:35.994Z,38.00
2017-08-25T15:49:04.107Z,39.20
2017-08-25T15:51:31.741Z,37.90
2017-08-25T15:53:59.377Z,38.00
2017-08-25T15:56:27.381Z,37.90
2017-08-25T15:58:55.010Z,38.30
2017-08-25T16:01:23.987Z,37.80
2017-08-25T16:03:52.057Z,37.30
2017-08-25T16:06:19.731Z,37.60
2017-08-25T16:08:47.346Z,37.80
2017-08-25T16:11:15.381Z,38.10
2017-08-25T16:13:43.309Z,37.10
2017-08-25T16:16:10.905Z,37.40
2017-08-25T16:18:38.990Z,38.20
2017-08-25T16:21:06.586Z,38.70
2017-08-25T16:23:34.225Z,38.50
2017-08-25T16:26:02.255Z,38.80
2017-08-25T16:28:29.875Z,39.00
2017-08-25T16:30:58.267Z,38.30
2017-08-25T16:33:26.338Z,38.40
2017-08-25T16:35:53.951Z,39.10
2017-08-25T16:38:21.563Z,38.40
2017-08-25T16:40:49.598Z,39.00
2017-08-25T16:43:17.218Z,38.90
2017-08-25T16:45:44.815Z,38.90
2017-08-25T16:48:12.877Z,38.10
2017-08-25T16:50:40.473Z,38.90
2017-08-25T16:53:08.074Z,39.40
2017-08-25T16:55:37.330Z,39.50
2017-08-25T16:58:04.929Z,39.50
2017-08-25T17:00:32.599Z,39.10
2017-08-25T17:03:00.564Z,39.10
2017-08-25T17:05:28.239Z,39.30
2017-08-25T17:07:55.849Z,39.90
2017-08-25T17:10:23.890Z,40.10
2017-08-25T17:12:51.477Z,40.00
2017-08-25T17:15:19.077Z,40.00
2017-08-25T17:17:47.050Z,40.10
2017-08-25T17:20:14.658Z,41.00
2017-08-25T17:22:42.311Z,40.80
2017-08-25T17:25:10.384Z,41.00
2017-08-25T17:27:37.985Z,40.30
2017-08-25T17:30:06.387Z,41.20
2017-08-25T17:32:34.488Z,41.80
2017-08-25T17:35:02.098Z,41.80
2017-08-25T17:37:30.288Z,42.20
2017-08-25T17:39:58.318Z,42.40
2017-08-25T17:42:25.922Z,42.70
2017-08-25T17:44:53.736Z,43.20
2017-08-25T17:47:21.795Z,43.30
2017-08-25T17:49:49.398Z,44.20
2017-08-25T17:52:17.010Z,43.80
2017-08-25T17:54:44.976Z,43.80
2017-08-25T17:57:12.597Z,44.00
2017-08-25T17:59:40.204Z,44.40
2017-08-25T18:02:08.276Z,44.80
2017-08-25T18:04:35.887Z,45.10
2017-08-25T18:07:03.515Z,45.20
2017-08-25T18:09:31.587Z,45.40
2017-08-25T18:11:59.233Z,45.30
2017-08-25T18:14:26.845Z,45.30
2017-08-25T18:16:54.857Z,45.30
2017-08-25T18:19:22.502Z,45.40
2017-08-25T18:21:50.104Z,45.40
2017-08-25T18:24:18.164Z,45.60
2017-08-25T18:26:45.756Z,45.50
2017-08-25T18:29:13.375Z,45.80
2017-08-25T18:31:41.342Z,46.30
2017-08-25T18:34:08.965Z,46.30
2017-08-25T18:36:36.575Z,46.20
2017-08-25T18:39:04.656Z,46.40
2017-08-25T18:41:33.049Z,46.80
2017-08-25T18:44:00.672Z,46.80
2017-08-25T18:46:28.661Z,46.70
2017-08-25T18:48:56.279Z,46.80
2017-08-25T18:51:24.098Z,46.90
2017-08-25T18:53:52.136Z,46.80
2017-08-25T18:56:20.596Z,47.30
2017-08-25T18:58:48.301Z,47.60
2017-08-25T19:01:16.550Z,48.00
2017-08-25T19:03:44.186Z,48.40
2017-08-25T19:06:11.809Z,48.70
2017-08-25T19:08:39.794Z,48.70
2017-08-25T19:11:08.032Z,48.40
2017-08-25T19:13:35.725Z,48.30
2017-08-25T19:16:03.774Z,48.20
2017-08-25T19:18:34.627Z,48.50
2017-08-25T19:21:06.434Z,49.20
2017-08-25T19:23:34.474Z,49.20
2017-08-25T19:26:02.071Z,49.10
2017-08-25T19:28:30.268Z,49.30
2017-08-25T19:30:58.286Z,49.80
2017-08-25T19:33:26.043Z,50.50
2017-08-25T19:35:54.090Z,49.60
2017-08-25T19:38:21.724Z,49.70
2017-08-25T19:40:49.309Z,49.80
2017-08-25T19:43:17.363Z,49.60
2017-08-25T19:45:45.091Z,49.50
2017-08-25T19:48:13.595Z,49.30
2017-08-25T19:50:41.591Z,49.80
2017-08-25T19:53:09.199Z,50.60
2017-08-25T19:55:36.810Z,50.20
2017-08-25T19:58:04.889Z,50.40
2017-08-25T20:00:32.586Z,51.00
2017-08-25T20:03:00.342Z,50.40
2017-08-25T20:05:28.361Z,50.50
2017-08-25T20:07:55.965Z,50.40
2017-08-25T20:10:23.574Z,50.20
2017-08-25T20:12:51.702Z,50.20
2017-08-25T20:15:19.310Z,50.10
2017-08-25T20:17:46.934Z,50.00
2017-08-25T20:20:14.957Z,50.00
2017-08-25T20:22:42.596Z,50.20
2017-08-25T20:25:10.207Z,50.30
2017-08-25T20:27:38.241Z,50.60
2017-08-25T20:30:06.732Z,51.00
2017-08-25T20:32:35.143Z,51.20
2017-08-25T20:35:03.173Z,51.20
2017-08-25T20:37:30.805Z,51.40
2017-08-25T20:39:58.427Z,51.70
2017-08-25T20:42:26.436Z,51.80
2017-08-25T20:44:54.069Z,51.90
2017-08-25T20:47:21.683Z,52.10
2017-08-25T20:49:49.759Z,52.40
2017-08-25T20:52:18.202Z,52.60
2017-08-25T20:54:45.797Z,52.70
2017-08-25T20:57:13.755Z,52.70
2017-08-25T20:59:41.377Z,52.70
2017-08-25T21:02:09.021Z,52.60
2017-08-25T21:04:36.975Z,52.70
2017-08-25T21:07:04.594Z,52.60
2017-08-25T21:09:32.205Z,52.60
2017-08-25T21:12:00.970Z,52.80
2017-08-25T21:14:28.607Z,52.70
2017-08-25T21:16:56.209Z,53.20
2017-08-25T21:19:24.332Z,53.50
2017-08-25T21:21:51.933Z,54.00
2017-08-25T21:24:19.523Z,54.00
2017-08-25T21:26:47.926Z,53.80
2017-08-25T21:29:15.537Z,53.70
2017-08-25T21:31:43.165Z,54.10
2017-08-25T21:34:11.166Z,53.40
2017-08-25T21:36:38.784Z,53.40
2017-08-25T21:39:06.675Z,53.70
2017-08-25T21:41:34.657Z,53.80
2017-08-25T21:44:02.261Z,53.80
2017-08-25T21:46:29.865Z,53.80
2017-08-25T21:48:57.884Z,53.80
2017-08-25T21:51:25.506Z,53.90
2017-08-25T21:53:53.119Z,54.10
2017-08-25T21:56:21.148Z,54.30
2017-08-25T21:58:48.760Z,54.40
2017-08-25T22:01:17.190Z,54.50
2017-08-25T22:03:45.345Z,54.80
2017-08-25T22:06:12.953Z,54.90
2017-08-25T22:08:40.566Z,54.60
2017-08-25T22:11:08.549Z,55.40
2017-08-25T22:13:36.158Z,56.40
2017-08-25T22:16:03.841Z,55.80
2017-08-25T22:18:31.858Z,55.60
2017-08-25T22:20:59.471Z,55.10
2017-08-25T22:23:27.064Z,54.70
2017-08-25T22:25:54.776Z,54.60
2017-08-25T22:28:22.379Z,54.60
